createdAt,value
2024-04-18T00:01:22.312Z,86.92
2024-04-18T00:03:49.078Z,86.31
2024-04-18T00:06:15.775Z,86.00
2024-04-18T00:08:42.225Z,85.89
2024-04-18T00:11:27.141Z,85.78
2024-04-18T00:13:53.727Z,85.50
2024-04-18T00:16:35.455Z,85.77
2024-04-18T00:19:15.681Z,85.58
2024-04-18T00:21:58.928Z,86.10
2024-04-18T00:24:26.677Z,86.46
2024-04-18T00:26:53.221Z,85.90
2024-04-18T00:29:19.923Z,86.09
2024-04-18T00:31:46.500Z,86.30
2024-04-18T00:34:33.193Z,86.91
2024-04-18T00:36:59.626Z,87.38
2024-04-18T00:39:26.278Z,87.37
2024-04-18T00:42:01.776Z,87.32
2024-04-18T00:44:31.393Z,87.65
2024-04-18T00:47:13.793Z,87.59
2024-04-18T00:50:01.929Z,88.03
2024-04-18T00:52:39.481Z,87.19
2024-04-18T00:55:09.238Z,87.25
2024-04-18T00:57:35.951Z,87.30
2024-04-18T01:00:06.438Z,87.20
2024-04-18T01:02:51.743Z,87.16
2024-04-18T01:05:33.464Z,87.60
2024-04-18T01:08:00.118Z,87.16
2024-04-18T01:10:46.650Z,87.29
2024-04-18T01:13:13.142Z,87.21
2024-04-18T01:15:58.959Z,87.19
2024-04-18T01:18:25.620Z,87.09
2024-04-18T01:21:12.264Z,87.34
2024-04-18T01:23:38.992Z,87.10
2024-04-18T01:26:05.464Z,86.90
2024-04-18T01:28:32.130Z,86.99
2024-04-18T01:30:58.746Z,86.92
2024-04-18T01:33:26.502Z,86.24
2024-04-18T01:35:53.238Z,86.45
2024-04-18T01:38:19.795Z,86.63
2024-04-18T01:40:46.329Z,86.39
2024-04-18T01:43:31.721Z,86.24
2024-04-18T01:45:58.335Z,86.19
2024-04-18T01:48:24.926Z,86.26
2024-04-18T01:51:11.388Z,86.00
2024-04-18T01:53:38.311Z,86.35
2024-04-18T01:56:17.937Z,85.73
2024-04-18T01:58:46.109Z,86.14
2024-04-18T02:01:12.677Z,86.26
2024-04-18T02:03:39.927Z,86.04
2024-04-18T02:06:12.578Z,85.59
2024-04-18T02:08:48.706Z,85.89
2024-04-18T02:11:41.919Z,85.99
2024-04-18T02:14:12.823Z,85.75
2024-04-18T02:16:39.326Z,85.46
2024-04-18T02:19:25.167Z,85.47
2024-04-18T02:21:57.510Z,85.78
2024-04-18T02:24:38.210Z,86.08
2024-04-18T02:27:05.019Z,86.15
2024-04-18T02:29:31.651Z,85.77
2024-04-18T02:32:01.031Z,85.95
2024-04-18T02:34:30.965Z,85.91
2024-04-18T02:36:57.374Z,86.07
2024-04-18T02:39:24.115Z,86.16
2024-04-18T02:41:50.577Z,85.95
2024-04-18T02:44:26.278Z,86.10
2024-04-18T02:46:53.315Z,86.52
2024-04-18T02:49:20.152Z,86.74
2024-04-18T02:51:56.643Z,86.85
2024-04-18T02:54:42.094Z,86.58
2024-04-18T02:57:08.735Z,86.81
2024-04-18T02:59:35.268Z,86.75
2024-04-18T03:02:21.946Z,87.10
2024-04-18T03:04:48.976Z,87.18
2024-04-18T03:07:15.436Z,87.13
2024-04-18T03:09:47.949Z,87.28
2024-04-18T03:12:27.298Z,87.64
2024-04-18T03:15:12.624Z,87.77
2024-04-18T03:18:02.109Z,87.38
2024-04-18T03:20:34.952Z,87.42
2024-04-18T03:23:09.120Z,87.51
2024-04-18T03:25:55.722Z,87.94
2024-04-18T03:28:22.215Z,87.76
2024-04-18T03:30:48.790Z,87.70
2024-04-18T03:33:15.541Z,87.72
2024-04-18T03:35:42.134Z,88.15
2024-04-18T03:38:15.154Z,88.87
2024-04-18T03:40:41.722Z,88.88
2024-04-18T03:43:08.233Z,88.63
2024-04-18T03:45:34.792Z,88.42
2024-04-18T03:48:20.189Z,88.67
2024-04-18T03:50:46.902Z,88.40
2024-04-18T03:53:22.745Z,88.61
2024-04-18T03:56:08.954Z,88.39
2024-04-18T03:58:35.654Z,88.72
2024-04-18T04:01:02.397Z,89.05
2024-04-18T04:03:29.533Z,88.78
2024-04-18T04:05:56.192Z,88.72
2024-04-18T04:08:22.800Z,88.82
2024-04-18T04:11:09.326Z,88.39
2024-04-18T04:13:36.737Z,89.08
2024-04-18T04:16:16.532Z,89.66
2024-04-18T04:18:43.916Z,90.20
2024-04-18T04:21:29.380Z,90.01
2024-04-18T04:23:56.475Z,89.92
2024-04-18T04:26:42.994Z,90.07
2024-04-18T04:29:09.659Z,90.69
2024-04-18T04:31:36.347Z,90.74
2024-04-18T04:34:02.810Z,90.25
2024-04-18T04:36:29.444Z,90.10
2024-04-18T04:38:56.284Z,89.91
2024-04-18T04:41:34.418Z,89.97
2024-04-18T04:44:00.929Z,89.47
2024-04-18T04:46:47.490Z,88.99
2024-04-18T04:49:18.199Z,89.01
2024-04-18T04:52:01.030Z,88.97
2024-04-18T04:54:42.396Z,89.04
2024-04-18T04:57:09.384Z,88.86
2024-04-18T04:59:36.367Z,89.22
2024-04-18T05:02:03.784Z,89.55
2024-04-18T05:04:49.950Z,89.87
2024-04-18T05:07:32.239Z,89.29
2024-04-18T05:10:19.857Z,88.80
2024-04-18T05:12:46.649Z,88.48
2024-04-18T05:15:34.281Z,88.39
2024-04-18T05:18:01.066Z,87.92
2024-04-18T05:23:20.702Z,88.60
2024-04-18T05:25:48.042Z,88.39
2024-04-18T05:28:22.457Z,88.88
2024-04-18T05:31:02.622Z,88.56
2024-04-18T05:33:31.140Z,88.60
2024-04-18T05:35:58.604Z,88.39
2024-04-18T05:38:26.644Z,88.46
2024-04-18T05:40:53.898Z,88.42
2024-04-18T05:43:41.043Z,88.18
2024-04-18T05:46:08.296Z,88.20
2024-04-18T05:48:37.082Z,88.23
2024-04-18T05:51:04.403Z,88.65
2024-04-18T05:53:31.715Z,88.73
2024-04-18T05:55:59.634Z,88.26
2024-04-18T05:58:27.229Z,88.26
2024-04-18T06:00:54.763Z,88.87
2024-04-18T06:03:22.452Z,89.09
2024-04-18T06:05:49.714Z,89.66
2024-04-18T06:08:17.174Z,89.11
2024-04-18T06:10:44.500Z,89.17
2024-04-18T06:13:23.689Z,89.86
2024-04-18T06:15:51.111Z,90.27
2024-04-18T06:18:18.417Z,90.50
2024-04-18T06:20:47.025Z,90.23
2024-04-18T06:23:14.627Z,89.75
2024-04-18T06:25:42.614Z,89.80
2024-04-18T06:28:11.696Z,90.07
2024-04-18T06:30:42.160Z,89.69
2024-04-18T06:33:12.888Z,89.22
2024-04-18T06:35:42.051Z,89.34
2024-04-18T06:38:09.299Z,89.62
2024-04-18T06:40:37.053Z,89.72
2024-04-18T06:43:04.544Z,89.37
2024-04-18T06:45:31.909Z,89.25
2024-04-18T06:47:59.294Z,89.01
2024-04-18T06:50:27.747Z,89.04
2024-04-18T06:52:55.049Z,89.34
2024-04-18T06:55:25.233Z,89.62
2024-04-18T06:57:53.240Z,89.12
2024-04-18T07:00:20.985Z,88.95
2024-04-18T07:02:48.598Z,89.14
2024-04-18T07:05:42.584Z,89.71
2024-04-18T07:08:22.545Z,89.83
2024-04-18T07:10:50.017Z,89.87
2024-04-18T07:13:32.561Z,90.06
2024-04-18T07:16:04.673Z,90.28
2024-04-18T07:18:51.148Z,89.72
2024-04-18T07:21:18.845Z,89.61
2024-04-18T07:23:46.514Z,89.76
2024-04-18T07:26:33.908Z,89.38
2024-04-18T07:29:01.468Z,89.06
2024-04-18T07:31:29.076Z,89.34
2024-04-18T07:34:26.438Z,89.19
2024-04-18T07:36:54.617Z,88.59
2024-04-18T07:39:22.246Z,88.59
2024-04-18T07:41:49.758Z,88.27
2024-04-18T07:44:18.751Z,87.71
2024-04-18T07:46:49.295Z,87.78
2024-04-18T07:49:16.795Z,87.70
2024-04-18T07:51:44.231Z,88.15
2024-04-18T07:54:11.704Z,88.37
2024-04-18T07:56:39.426Z,88.53
2024-04-18T07:59:09.747Z,88.44
2024-04-18T08:01:39.910Z,88.47
2024-04-18T08:04:27.425Z,88.96
2024-04-18T08:06:58.393Z,88.31
2024-04-18T08:09:30.006Z,88.31
2024-04-18T08:14:33.080Z,89.30
2024-04-18T08:17:04.016Z,89.07
2024-04-18T08:19:32.863Z,89.10
2024-04-18T08:22:03.373Z,89.07
2024-04-18T08:24:36.305Z,88.79
2024-04-18T08:27:07.581Z,88.47
2024-04-18T08:29:35.125Z,88.39
2024-04-18T08:32:02.810Z,88.67
2024-04-18T08:34:32.580Z,88.86
2024-04-18T08:37:01.491Z,89.23
2024-04-18T08:39:29.878Z,88.60
2024-04-18T08:41:58.384Z,88.40
2024-04-18T08:44:26.477Z,89.01
2024-04-18T08:46:54.121Z,89.18
2024-04-18T08:49:21.630Z,88.64
2024-04-18T08:51:49.215Z,88.58
2024-04-18T08:54:18.103Z,88.36
2024-04-18T08:56:49.911Z,87.83
2024-04-18T08:59:18.183Z,87.24
2024-04-18T09:01:45.539Z,87.77
2024-04-18T09:04:13.183Z,87.98
2024-04-18T09:06:40.650Z,88.28
2024-04-18T09:09:15.124Z,88.65
2024-04-18T09:11:42.492Z,87.74
2024-04-18T09:14:10.120Z,88.34
2024-04-18T09:16:39.099Z,88.49
2024-04-18T09:19:07.270Z,88.00
2024-04-18T09:21:36.236Z,88.24
2024-04-18T09:24:06.520Z,88.41
2024-04-18T09:26:33.968Z,88.32
2024-04-18T09:29:01.358Z,87.85
2024-04-18T09:31:37.699Z,88.05
2024-04-18T09:34:11.504Z,88.27
2024-04-18T09:36:41.289Z,88.07
2024-04-18T09:39:17.580Z,87.72
2024-04-18T09:41:50.550Z,87.11
2024-04-18T09:44:26.164Z,87.83
2024-04-18T09:46:57.213Z,87.64
2024-04-18T09:49:25.240Z,87.12
2024-04-18T09:51:52.988Z,87.20
2024-04-18T09:54:20.528Z,86.47
2024-04-18T09:56:48.344Z,86.17
2024-04-18T09:59:16.943Z,86.77
2024-04-18T10:01:51.168Z,87.30
2024-04-18T10:04:29.065Z,88.08
2024-04-18T10:06:56.923Z,88.42
2024-04-18T10:09:28.540Z,89.17
2024-04-18T10:11:58.197Z,89.11
2024-04-18T10:14:25.530Z,88.41
2024-04-18T10:16:53.327Z,88.69
2024-04-18T10:19:22.723Z,88.34
2024-04-18T10:22:10.870Z,88.04
2024-04-18T10:24:44.789Z,88.13
2024-04-18T10:27:15.941Z,88.78
2024-04-18T10:29:58.261Z,88.70
2024-04-18T10:32:29.928Z,88.78
2024-04-18T10:35:00.277Z,89.23
2024-04-18T10:37:27.867Z,89.34
2024-04-18T10:39:58.908Z,88.97
2024-04-18T10:42:26.946Z,88.84
2024-04-18T10:44:54.443Z,89.37
2024-04-18T10:47:22.711Z,89.86
2024-04-18T10:49:50.352Z,90.22
2024-04-18T10:52:18.324Z,91.16
2024-04-18T10:54:47.746Z,92.11
2024-04-18T10:57:15.288Z,92.23
2024-04-18T10:59:48.033Z,92.76
2024-04-18T11:02:16.365Z,93.57
2024-04-18T11:04:43.709Z,94.05
2024-04-18T11:07:12.350Z,94.81
2024-04-18T11:09:42.096Z,95.36
2024-04-18T11:12:09.844Z,96.20
2024-04-18T11:14:37.864Z,96.76
2024-04-18T11:17:05.401Z,97.10
2024-04-18T11:19:32.990Z,97.65
2024-04-18T11:22:01.340Z,98.59
2024-04-18T11:24:29.877Z,99.24
2024-04-18T11:26:57.543Z,99.56
2024-04-18T11:29:28.667Z,99.93
2024-04-18T11:32:10.321Z,100.00
2024-04-18T11:34:39.606Z,100.00
2024-04-18T11:37:13.345Z,100.00
2024-04-18T11:39:41.953Z,100.00
2024-04-18T11:42:09.716Z,100.00
2024-04-18T11:44:37.217Z,100.00
2024-04-18T11:47:04.953Z,100.00
2024-04-18T11:49:32.391Z,100.00
2024-04-18T11:51:59.829Z,100.00
2024-04-18T11:54:27.132Z,100.00
2024-04-18T11:56:55.121Z,100.00
2024-04-18T11:59:36.054Z,100.00
2024-04-18T12:02:03.626Z,100.00
2024-04-18T12:04:51.432Z,100.00
2024-04-18T12:07:18.929Z,100.00
2024-04-18T12:09:49.707Z,100.00
2024-04-18T12:12:17.169Z,100.00
2024-04-18T12:14:48.766Z,100.00
2024-04-18T12:17:29.116Z,100.00
2024-04-18T12:20:16.128Z,100.00
2024-04-18T12:22:43.601Z,100.00
2024-04-18T12:25:15.346Z,100.00
2024-04-18T12:27:42.660Z,100.00
2024-04-18T12:30:30.337Z,100.00
2024-04-18T12:33:17.112Z,100.00
2024-04-18T12:35:45.159Z,100.00
2024-04-18T12:38:12.715Z,100.00
2024-04-18T12:40:44.261Z,100.00
2024-04-18T12:43:21.071Z,100.00
2024-04-18T12:46:03.533Z,100.00
2024-04-18T12:48:56.369Z,100.00
2024-04-18T12:51:24.142Z,100.00
2024-04-18T12:53:53.995Z,100.00
2024-04-18T12:56:48.657Z,100.00
2024-04-18T12:59:22.595Z,100.00
2024-04-18T13:01:50.030Z,100.00
2024-04-18T13:04:20.392Z,100.00
2024-04-18T13:06:48.454Z,100.00
2024-04-18T13:09:31.611Z,100.00
2024-04-18T13:12:05.279Z,100.00
2024-04-18T13:14:51.783Z,100.00
2024-04-18T13:17:19.734Z,100.00
2024-04-18T13:19:47.540Z,100.00
2024-04-18T13:22:17.430Z,100.00
2024-04-18T13:24:48.025Z,100.00
2024-04-18T13:27:29.159Z,100.00
2024-04-18T13:29:56.944Z,100.00
2024-04-18T13:32:35.467Z,100.00
2024-04-18T13:35:03.119Z,100.00
2024-04-18T13:37:30.602Z,100.00
2024-04-18T13:40:17.991Z,100.00
2024-04-18T13:42:58.624Z,100.00
2024-04-18T13:45:32.578Z,100.00
2024-04-18T13:48:01.674Z,100.00
2024-04-18T13:50:45.255Z,100.00
2024-04-18T13:53:13.582Z,100.00
2024-04-18T13:55:49.696Z,100.00
2024-04-18T13:58:17.757Z,100.00
2024-04-18T14:00:59.181Z,100.00
2024-04-18T14:03:31.936Z,100.00
2024-04-18T14:06:09.201Z,100.00
2024-04-18T14:08:40.898Z,100.00
2024-04-18T14:11:27.873Z,100.00
2024-04-18T14:14:08.965Z,100.00
2024-04-18T14:16:56.276Z,100.00
2024-04-18T14:19:33.230Z,100.00
2024-04-18T14:22:07.585Z,100.00
2024-04-18T14:24:35.623Z,100.00
2024-04-18T14:27:03.264Z,100.00
2024-04-18T14:29:30.820Z,100.00
2024-04-18T14:32:00.793Z,100.00
2024-04-18T14:34:48.113Z,100.00
2024-04-18T14:37:18.805Z,100.00
2024-04-18T14:39:47.516Z,100.00
2024-04-18T14:42:15.203Z,100.00
2024-04-18T14:44:42.802Z,100.00
2024-04-18T14:47:16.425Z,100.00
2024-04-18T14:50:03.591Z,100.00
2024-04-18T14:52:35.231Z,100.00
2024-04-18T14:55:25.900Z,100.00
2024-04-18T14:58:02.486Z,100.00
2024-04-18T15:00:52.372Z,100.00
2024-04-18T15:03:20.811Z,100.00
2024-04-18T15:05:55.464Z,100.00
2024-04-18T15:08:42.499Z,100.00
2024-04-18T15:11:27.095Z,100.00
2024-04-18T15:14:05.550Z,100.00
2024-04-18T15:16:33.736Z,100.00
2024-04-18T15:19:01.280Z,100.00
2024-04-18T15:21:49.730Z,99.97
2024-04-18T15:24:17.272Z,100.00
2024-04-18T15:27:04.166Z,99.87
2024-04-18T15:29:31.979Z,99.77
2024-04-18T15:32:22.908Z,99.99
2024-04-18T15:34:50.443Z,99.15
2024-04-18T15:37:36.137Z,98.75
2024-04-18T15:40:03.963Z,98.64
2024-04-18T15:42:31.546Z,98.08
2024-04-18T15:45:00.735Z,97.68
2024-04-18T15:47:32.321Z,98.59
2024-04-18T15:50:32.552Z,98.53
2024-04-18T15:53:00.165Z,98.61
2024-04-18T15:55:30.650Z,98.41
2024-04-18T15:58:18.730Z,98.21
2024-04-18T16:00:46.372Z,97.86
2024-04-18T16:03:33.877Z,98.00
2024-04-18T16:06:23.198Z,98.26
2024-04-18T16:09:09.711Z,98.60
2024-04-18T16:11:40.142Z,98.37
2024-04-18T16:14:28.107Z,98.17
2024-04-18T16:16:55.682Z,98.74
2024-04-18T16:19:40.766Z,98.63
2024-04-18T16:22:08.313Z,98.48
2024-04-18T16:24:50.812Z,98.99
2024-04-18T16:27:18.227Z,99.03
2024-04-18T16:30:00.976Z,98.24
2024-04-18T16:32:40.627Z,98.11
2024-04-18T16:35:08.229Z,98.35
2024-04-18T16:37:40.277Z,98.32
2024-04-18T16:40:17.044Z,98.75
2024-04-18T16:43:00.235Z,98.54
2024-04-18T16:45:31.721Z,98.51
2024-04-18T16:48:01.023Z,98.78
2024-04-18T16:50:29.210Z,98.23
2024-04-18T16:52:56.730Z,98.09
2024-04-18T16:55:45.842Z,98.21
2024-04-18T16:58:17.115Z,99.02
2024-04-18T17:00:59.746Z,98.97
2024-04-18T17:03:27.662Z,98.65
2024-04-18T17:06:02.797Z,98.99
2024-04-18T17:08:30.491Z,98.98
2024-04-18T17:10:58.386Z,98.78
2024-04-18T17:13:44.307Z,98.61
2024-04-18T17:16:12.144Z,98.16
2024-04-18T17:18:49.093Z,98.44
2024-04-18T17:21:17.039Z,98.42
2024-04-18T17:23:44.799Z,98.72
2024-04-18T17:26:12.223Z,98.92
2024-04-18T17:28:40.231Z,98.67
2024-04-18T17:31:08.159Z,98.40
2024-04-18T17:33:36.005Z,97.84
2024-04-18T17:36:04.135Z,97.58
2024-04-18T17:40:40.977Z,97.62
2024-04-18T17:43:09.304Z,97.74
2024-04-18T17:45:38.547Z,97.42
2024-04-18T17:48:22.306Z,97.50
2024-04-18T17:50:54.127Z,98.00
2024-04-18T17:53:21.839Z,98.26
2024-04-18T17:55:51.186Z,98.20
2024-04-18T17:58:19.132Z,98.22
2024-04-18T18:00:46.994Z,98.44
2024-04-18T18:03:14.855Z,98.71
2024-04-18T18:05:43.041Z,98.61
2024-04-18T18:08:28.983Z,98.60
2024-04-18T18:11:16.580Z,98.24
2024-04-18T18:13:44.628Z,98.10
2024-04-18T18:16:16.607Z,98.16
2024-04-18T18:18:45.070Z,98.34
2024-04-18T18:21:12.530Z,98.86
2024-04-18T18:23:39.948Z,98.93
2024-04-18T18:26:07.534Z,98.98
2024-04-18T18:28:35.068Z,98.87
2024-04-18T18:31:02.406Z,98.54
2024-04-18T18:33:30.086Z,99.13
2024-04-18T18:35:57.963Z,99.60
2024-04-18T18:38:25.733Z,99.18
2024-04-18T18:40:53.182Z,98.67
2024-04-18T18:43:24.379Z,98.88
2024-04-18T18:45:59.371Z,98.67
2024-04-18T18:48:27.460Z,98.72
2024-04-18T18:51:06.774Z,98.68
2024-04-18T18:53:34.738Z,98.91
2024-04-18T18:56:03.736Z,99.01
2024-04-18T18:58:52.952Z,99.09
2024-04-18T19:01:22.303Z,99.63
2024-04-18T19:04:09.926Z,99.17
2024-04-18T19:06:37.870Z,98.99
2024-04-18T19:09:07.600Z,98.81
2024-04-18T19:11:38.683Z,98.63
2024-04-18T19:14:06.203Z,98.90
2024-04-18T19:16:33.908Z,98.73
2024-04-18T19:19:01.567Z,98.98
2024-04-18T19:21:29.162Z,98.67
2024-04-18T19:23:58.253Z,98.46
2024-04-18T19:26:27.375Z,98.53
2024-04-18T19:28:55.063Z,98.61
2024-04-18T19:31:22.741Z,98.31
2024-04-18T19:33:50.942Z,98.35
2024-04-18T19:36:18.628Z,98.66
2024-04-18T19:38:46.291Z,98.65
2024-04-18T19:41:26.559Z,98.70
2024-04-18T19:43:55.149Z,98.95
2024-04-18T19:46:23.180Z,98.95
2024-04-18T19:49:10.430Z,99.23
2024-04-18T19:51:57.328Z,99.34
2024-04-18T19:54:24.828Z,98.92
2024-04-18T19:56:52.357Z,99.27
2024-04-18T19:59:19.778Z,99.17
2024-04-18T20:01:48.661Z,98.74
2024-04-18T20:04:16.142Z,98.39
2024-04-18T20:06:43.726Z,98.05
2024-04-18T20:09:11.146Z,98.31
2024-04-18T20:11:38.746Z,98.35
2024-04-18T20:14:06.249Z,98.00
2024-04-18T20:16:35.064Z,97.88
2024-04-18T20:19:14.737Z,97.85
2024-04-18T20:21:43.582Z,98.39
2024-04-18T20:24:12.092Z,98.40
2024-04-18T20:26:58.551Z,98.63
2024-04-18T20:29:47.441Z,99.08
2024-04-18T20:32:21.765Z,98.47
2024-04-18T20:34:49.488Z,98.32
2024-04-18T20:37:17.821Z,98.14
2024-04-18T20:39:46.529Z,97.83
2024-04-18T20:42:14.143Z,98.02
2024-04-18T20:45:00.252Z,98.13
2024-04-18T20:47:27.824Z,97.93
2024-04-18T20:49:55.172Z,98.54
2024-04-18T20:52:23.076Z,98.81
2024-04-18T20:54:50.583Z,98.73
2024-04-18T20:57:18.145Z,98.74
2024-04-18T20:59:45.653Z,99.28
2024-04-18T21:02:13.022Z,99.48
2024-04-18T21:04:41.381Z,99.85
2024-04-18T21:07:08.843Z,99.97
2024-04-18T21:09:36.691Z,100.00
2024-04-18T21:12:04.738Z,100.00
2024-04-18T21:14:32.124Z,100.00
2024-04-18T21:16:59.387Z,100.00
2024-04-18T21:19:26.845Z,100.00
2024-04-18T21:21:54.215Z,100.00
2024-04-18T21:24:21.687Z,100.00
2024-04-18T21:26:49.156Z,99.93
2024-04-18T21:29:16.473Z,100.00
2024-04-18T21:31:43.937Z,100.00
2024-04-18T21:34:11.967Z,99.90
2024-04-18T21:36:39.619Z,99.87
2024-04-18T21:39:07.259Z,99.94
2024-04-18T21:41:35.506Z,100.00
2024-04-18T21:44:03.023Z,100.00
2024-04-18T21:46:30.306Z,100.00
2024-04-18T21:48:57.624Z,100.00
2024-04-18T21:51:25.132Z,100.00
2024-04-18T21:53:52.457Z,99.80
2024-04-18T21:56:19.711Z,100.00
2024-04-18T21:58:47.017Z,100.00
2024-04-18T22:01:33.674Z,100.00
2024-04-18T22:04:01.269Z,99.92
2024-04-18T22:06:28.597Z,99.67
2024-04-18T22:08:55.860Z,99.66
2024-04-18T22:11:23.157Z,99.36
2024-04-18T22:13:50.630Z,99.44
2024-04-18T22:16:18.049Z,99.54
2024-04-18T22:18:45.629Z,99.49
2024-04-18T22:21:13.131Z,99.50
2024-04-18T22:23:40.428Z,99.35
2024-04-18T22:26:08.414Z,99.66
2024-04-18T22:28:35.873Z,100.00
2024-04-18T22:31:04.288Z,100.00
2024-04-18T22:33:31.858Z,100.00
2024-04-18T22:35:59.397Z,100.00
2024-04-18T22:38:26.801Z,100.00
2024-04-18T22:40:54.141Z,100.00
2024-04-18T22:43:21.460Z,100.00
2024-04-18T22:45:48.896Z,100.00
2024-04-18T22:48:16.380Z,100.00
2024-04-18T22:50:44.670Z,100.00
2024-04-18T22:53:12.021Z,100.00
2024-04-18T22:55:39.428Z,100.00
2024-04-18T22:58:08.975Z,100.00
2024-04-18T23:00:37.551Z,100.00
2024-04-18T23:03:05.949Z,100.00
2024-04-18T23:05:36.559Z,100.00
2024-04-18T23:08:04.448Z,100.00
2024-04-18T23:10:32.780Z,100.00
2024-04-18T23:13:00.620Z,100.00
2024-04-18T23:15:47.259Z,100.00
2024-04-18T23:18:14.915Z,100.00
2024-04-18T23:20:43.879Z,100.00
2024-04-18T23:23:11.196Z,99.99
2024-04-18T23:25:38.489Z,100.00
2024-04-18T23:28:05.866Z,100.00
2024-04-18T23:30:33.277Z,100.00
2024-04-18T23:33:00.582Z,100.00
2024-04-18T23:35:27.949Z,100.00
2024-04-18T23:37:55.472Z,100.00
2024-04-18T23:40:22.839Z,100.00
2024-04-18T23:42:50.181Z,100.00
2024-04-18T23:45:17.690Z,100.00
2024-04-18T23:47:45.077Z,100.00
2024-04-18T23:50:12.464Z,100.00
2024-04-18T23:52:39.831Z,100.00
2024-04-18T23:55:07.241Z,100.00
2024-04-18T23:57:34.599Z,100.00
